Latest Weather Observations for Sydney Airport

IDN60801

Issued at 9:03 am EST Saturday 5 September 2015 (issued every 30 minutes, with the page automatically refreshed every 10 minutes)

About weather observations | Map of weather stations | Latest weather observations for NSW | Other Formats
Station Details ID: 066037 Name: SYDNEY AIRPORT AMO Lat: -33.95 Lon: 151.17 Height: 6.0 m
Data from the previous 72 hours. | See also: Recent months at Sydney Airport
Date/Time
EST
Temp
°C
App
Temp
°C
Dew
Point
Rel
Hum
%
Delta-T
°C
Wind Press
QNH
hPa
Press
MSL
hPa
Rain
since 9 am
mm
Dir
 
Spd
km/h
Gust
km/h
Spd
kts
Gust
kts
05/08:30am 15.6 12.9 8.9 64 3.4 WNW 13 19 7 10 1022.2 1022.2 0.2
05/08:00am 14.5 11.5 9.2 70 2.7 NW 15 19 8 10 1022.1 1022.1 0.2
05/07:30am 13.0 9.9 9.0 77 2.0 NNW 15 20 8 11 1022.1 1022.1 0.2
05/07:00am 12.0 8.5 8.8 81 1.6 NW 17 17 9 9 1021.8 1021.8 0.2
05/06:30am 11.6 8.1 8.8 83 1.4 NW 17 22 9 12 1021.4 1021.4 0.2
05/06:00am 11.4 9.1 9.0 85 1.2 NW 11 13 6 7 1021.2 1021.2 0.2
05/05:30am 11.5 9.2 9.1 85 1.2 NW 11 13 6 7 1021.0 1021.0 0.2
05/05:00am 12.2 10.3 9.0 81 1.6 NNW 9 11 5 6 1020.8 1020.8 0.2
05/04:30am 11.7 9.8 9.1 84 1.3 WNW 9 9 5 5 1020.6 1020.6 0.2
05/04:00am 12.1 9.9 9.3 83 1.4 NW 11 11 6 6 1020.4 1020.4 0.2
05/03:30am 12.1 9.9 9.5 84 1.3 NNW 11 11 6 6 1020.3 1020.3 0.2
05/03:00am 12.5 11.1 9.5 82 1.5 W 7 9 4 5 1020.5 1020.5 0.2
05/02:30am 12.7 10.7 10.0 84 1.4 WNW 11 11 6 6 1020.7 1020.7 0.2
05/02:00am 13.4 12.1 9.9 79 1.8 WNW 7 9 4 5 1021.2 1021.2 0.2
05/01:30am 13.7 12.4 10.0 78 1.9 NW 7 9 4 5 1021.4 1021.4 0.2
05/01:00am 14.0 12.2 9.5 74 2.3 NNW 9 11 5 6 1021.6 1021.6 0.2
05/12:30am 14.2 12.1 9.7 74 2.3 NW 11 13 6 7 1021.9 1021.9 0.2
05/12:00am 14.2 12.1 9.9 75 2.2 WNW 11 13 6 7 1022.1 1022.1 0.2
 
Date/Time
EST
Temp
°C
App
Temp
°C
Dew
Point
Rel
Hum
%
Delta-T
°C
Wind Press
QNH
hPa
Press
MSL
hPa
Rain
since 9 am
mm
Dir
 
Spd
km/h
Gust
km/h
Spd
kts
Gust
kts
04/11:30pm 14.8 12.9 10.4 75 2.3 WNW 11 13 6 7 1022.1 1022.1 0.2
04/11:00pm 15.1 13.5 10.1 72 2.6 W 9 11 5 6 1022.2 1022.2 0.2
04/10:30pm 15.2 13.5 9.8 70 2.8 W 9 19 5 10 1022.4 1022.4 0.2
04/10:00pm 15.7 15.5 9.0 64 3.4 CALM 0 4 0 2 1022.3 1022.3 0.2
04/09:30pm 15.6 15.1 9.2 65 3.3 NE 2 7 1 4 1022.2 1022.2 0.2
04/09:00pm 15.6 14.7 9.4 66 3.2 NE 4 6 2 3 1022.1 1022.1 0.2
04/08:30pm 15.7 14.3 9.0 64 3.4 ESE 6 7 3 4 1022.1 1022.1 0.2
04/08:00pm 15.9 13.4 8.4 61 3.8 ESE 11 13 6 7 1022.1 1022.1 0.2
04/07:30pm 16.0 13.5 8.3 60 3.9 ESE 11 15 6 8 1022.0 1022.0 0.2
04/07:00pm 16.0 12.8 8.5 61 3.8 ESE 15 19 8 10 1021.8 1021.8 0.2
04/06:30pm 16.0 13.6 8.5 61 3.8 SSE 11 13 6 7 1021.4 1021.4 0.2
04/06:00pm 16.0 13.2 8.5 61 3.8 SSE 13 17 7 9 1021.1 1021.1 0.2
04/05:30pm 15.8 12.9 8.3 61 3.8 SE 13 15 7 8 1020.7 1020.7 0.2
04/05:00pm 16.5 12.6 8.7 60 4.0 SE 19 26 10 14 1020.7 1020.7 0.2
04/04:30pm 16.5 13.2 10.9 69 3.0 S 19 22 10 12 1020.6 1020.6 0.2
04/04:00pm 16.4 12.6 9.2 62 3.7 S 19 26 10 14 1020.7 1020.7 0.2
04/03:30pm 16.7 12.1 9.6 63 3.7 S 24 33 13 18 1020.6 1020.6 0.2
04/03:00pm 16.6 11.4 10.1 65 3.4 S 28 35 15 19 1020.5 1020.5 0.2
04/02:30pm 16.9 11.7 10.3 65 3.5 S 28 35 15 19 1020.6 1020.6 0.2
04/02:00pm 16.8 11.5 9.7 63 3.7 S 28 33 15 18 1020.6 1020.6 0.2
04/01:30pm 16.8 10.9 10.6 67 3.3 S 32 39 17 21 1020.7 1020.7 0.2
04/01:00pm 16.8 10.6 10.2 65 3.5 S 33 41 18 22 1020.9 1020.9 0.2
04/12:30pm 16.5 10.3 10.0 65 3.4 SSW 33 41 18 22 1021.2 1021.2 0.2
04/12:00pm 16.5 10.3 10.0 65 3.4 SSW 33 43 18 23 1021.3 1021.3 0.2
04/11:30am 16.3 10.2 9.8 65 3.4 SSW 32 39 17 21 1021.8 1021.8 0.2
04/11:00am 16.3 10.1 10.0 66 3.3 SSW 33 44 18 24 1021.9 1021.9 0.2
04/10:30am 15.7 9.2 10.4 71 2.8 SSW 35 50 19 27 1021.9 1021.9 0.0
04/10:00am 15.2 9.1 10.6 74 2.4 SSW 33 39 18 21 1021.8 1021.8 0.0
04/09:30am 15.2 9.1 10.6 74 2.4 SSW 33 44 18 24 1021.6 1021.6 0.0
04/09:00am 15.1 9.0 10.5 74 2.4 SSW 33 41 18 22 1021.3 1021.3 9.2
04/08:30am 14.7 8.9 10.9 78 2.0 SSW 32 41 17 22 1021.1 1021.1 9.2
04/08:00am 14.1 8.7 12.1 88 1.1 SSW 32 41 17 22 1020.8 1020.8 9.2
04/07:30am 13.2 10.1 11.7 91 0.8 SSW 19 24 10 13 1020.5 1020.5 9.0
04/07:00am 12.6 9.9 11.8 95 0.4 WSW 17 20 9 11 1019.9 1019.9 8.2
04/06:50am 12.5 9.5 12.1 97 0.2 WSW 19 24 10 13 1019.8 1019.8 8.2
04/06:30am 12.7 8.1 12.3 97 0.2 SW 28 37 15 20 1019.6 1019.6 7.6
04/06:26am 12.9 7.9 12.3 96 0.3 SSW 30 48 16 26 1019.5 1019.5 7.4
04/06:12am 13.1 8.2 12.4 95 0.4 SW 30 37 16 20 1019.3 1019.3 6.6
04/06:00am 12.9 7.3 12.2 95 0.4 SW 33 41 18 22 1019.0 1019.0 6.0
04/05:46am 13.1 7.5 12.2 94 0.5 SW 33 43 18 23 1018.9 1018.9 5.8
04/05:30am 13.8 7.7 11.7 87 1.1 SSW 35 44 19 24 1018.5 1018.5 5.6
04/05:00am 13.8 7.8 12.1 89 0.9 SSW 35 44 19 24 1018.2 1018.2 5.6
04/04:30am 13.4 7.5 12.5 94 0.5 SSW 35 43 19 23 1017.6 1017.6 5.4
04/04:00am 13.5 9.0 12.6 94 0.5 SSW 28 41 15 22 1017.3 1017.3 5.2
04/03:44am 13.6 8.2 12.7 94 0.5 SW 33 41 18 22 1016.9 1016.9 4.4
04/03:30am 13.6 7.7 12.3 92 0.7 SW 35 41 19 22 1017.0 1017.0 3.6
04/03:00am 13.4 8.0 12.1 92 0.7 SW 32 37 17 20 1016.9 1016.9 2.8
04/02:30am 14.0 8.5 12.0 88 1.1 SSW 32 39 17 21 1016.5 1016.5 2.2
04/02:00am 14.5 8.8 11.3 81 1.7 SW 32 37 17 20 1016.2 1016.2 2.2
04/01:30am 14.6 8.9 11.8 83 1.5 SSW 33 39 18 21 1015.9 1015.9 2.2
04/01:00am 14.4 8.4 12.0 85 1.3 SSW 35 43 19 23 1015.8 1015.8 2.2
04/12:30am 14.1 8.4 11.9 86 1.2 SSW 33 43 18 23 1015.2 1015.2 1.4
04/12:00am 14.7 8.4 10.9 78 2.0 SSW 35 48 19 26 1014.3 1014.3 0.6
 
Date/Time
EST
Temp
°C
App
Temp
°C
Dew
Point
Rel
Hum
%
Delta-T
°C
Wind Press
QNH
hPa
Press
MSL
hPa
Rain
since 9 am
mm
Dir
 
Spd
km/h
Gust
km/h
Spd
kts
Gust
kts
03/11:30pm 14.2 7.1 10.8 80 1.8 SW 39 54 21 29 1014.1 1014.1 0.4
03/11:26pm 14.1 8.3 10.7 80 1.8 SW 32 44 17 24 1014.2 1014.2 0.4
03/11:00pm 14.2 8.7 9.1 71 2.6 WSW 28 32 15 17 1013.9 1013.9 0.2
03/10:30pm 14.0 8.4 8.6 70 2.7 WSW 28 33 15 18 1013.6 1013.6 0.2
03/10:09pm 14.1 7.7 8.5 69 2.8 WSW 32 52 17 28 1013.5 1013.5 0.2
03/10:00pm 14.1 7.8 8.8 70 2.7 WSW 32 37 17 20 1013.5 1013.5 0.2
03/09:30pm 14.4 7.5 8.7 68 2.9 SW 35 44 19 24 1013.2 1013.2 0.2
03/09:00pm 14.8 6.7 8.7 67 3.1 SW 41 57 22 31 1012.9 1012.9 0.2
03/08:30pm 15.6 7.9 7.3 57 4.1 SW 37 48 20 26 1012.2 1012.2 0.0
03/08:00pm 15.4 9.3 6.6 55 4.3 WSW 28 35 15 19 1011.6 1011.6 0.0
03/07:30pm 15.8 9.2 6.1 52 4.7 WSW 30 35 16 19 1011.3 1011.3 0.0
03/07:00pm 15.7 9.5 6.2 53 4.6 WSW 28 32 15 17 1010.7 1010.7 0.0
03/06:30pm 15.2 8.5 7.3 59 3.9 WSW 32 39 17 21 1010.1 1010.1 0.0
03/06:00pm 16.4 8.6 5.1 47 5.4 WSW 35 50 19 27 1009.7 1009.7 0.0
03/05:30pm 16.9 8.6 6.0 48 5.3 SW 39 52 21 28 1008.8 1008.8 0.0
03/05:00pm 17.4 9.9 4.6 42 6.1 WSW 33 50 18 27 1007.9 1007.9 0.0
03/04:59pm 17.4 10.1 4.3 42 6.2 WSW 32 50 17 27 1007.9 1007.9 0.0
03/04:30pm 17.9 9.5 3.6 38 6.7 WSW 37 50 20 27 1007.2 1007.2 0.0
03/04:00pm 18.6 9.7 2.9 35 7.3 WSW 39 52 21 28 1006.6 1006.6 0.0
03/03:30pm 19.7 11.9 1.5 29 8.3 WSW 32 41 17 22 1006.2 1006.2 0.0
03/03:00pm 19.5 12.0 1.5 30 8.2 WSW 30 39 16 21 1005.8 1005.8 0.0
03/02:30pm 20.3 13.3 1.9 29 8.5 WSW 28 37 15 20 1005.4 1005.4 0.0
03/02:00pm 20.1 13.5 1.9 30 8.4 WSW 26 35 14 19 1005.2 1005.2 0.0
03/01:30pm 19.4 12.6 2.9 33 7.7 W 28 37 15 20 1005.2 1005.2 0.0
03/01:17pm 20.0 12.5 3.6 34 7.8 W 32 50 17 27 1005.2 1005.2 0.0
03/01:00pm 18.7 11.5 3.0 35 7.3 W 30 39 16 21 1005.3 1005.3 0.0
03/12:30pm 18.4 12.6 4.4 39 6.7 W 24 30 13 16 1005.7 1005.7 0.0
03/12:00pm 18.2 10.9 4.4 40 6.6 W 32 39 17 21 1005.9 1005.9 0.0
03/11:30am 17.4 11.3 6.7 49 5.3 WNW 28 43 15 23 1006.0 1006.0 0.0
03/11:05am 17.8 11.5 7.3 50 5.3 W 30 50 16 27 1006.2 1006.2 0.0
03/11:00am 17.5 12.3 7.1 50 5.2 W 24 37 13 20 1006.2 1006.2 0.0
03/10:30am 17.1 12.2 8.3 56 4.5 W 24 39 13 21 1006.2 1006.2 0.0
03/10:00am 16.9 13.9 9.4 61 3.9 W 15 28 8 15 1005.8 1005.8 0.0
03/09:30am 16.0 11.5 8.6 61 3.8 WNW 22 28 12 15 1005.8 1005.8 0.0
03/09:00am 14.8 9.3 9.1 68 2.9 W 28 33 15 18 1006.1 1006.1 2.0
03/08:30am 14.1 9.4 9.4 73 2.4 WNW 24 30 13 16 1006.0 1006.0 2.0
03/08:00am 13.1 10.1 9.4 78 1.9 WNW 15 19 8 10 1005.6 1005.6 2.0
03/07:30am 13.0 10.6 9.9 81 1.6 NW 13 17 7 9 1005.4 1005.4 2.0
03/07:00am 11.8 9.4 10.0 89 0.9 WNW 13 17 7 9 1005.0 1005.0 2.0
03/06:30am 12.0 9.0 10.5 90 0.8 WNW 17 22 9 12 1004.9 1004.9 2.0
03/06:00am 12.2 10.0 10.7 90 0.8 WNW 13 17 7 9 1004.8 1004.8 2.0
03/05:30am 12.5 9.8 10.4 87 1.1 NW 15 22 8 12 1004.9 1004.9 2.0
03/05:00am 12.6 10.4 10.7 88 1.0 N 13 17 7 9 1004.8 1004.8 2.0
03/04:30am 12.7 10.9 10.8 88 1.0 NNW 11 17 6 9 1005.0 1005.0 2.0
03/04:00am 12.9 11.1 11.0 88 1.0 N 11 15 6 8 1004.9 1004.9 2.0
03/03:30am 12.7 11.1 11.4 92 0.7 NNW 11 11 6 6 1005.5 1005.5 2.0
03/03:00am 12.5 11.7 11.2 92 0.7 S 6 7 3 4 1005.8 1005.8 2.0
03/02:30am 12.7 10.5 10.8 88 1.0 SSW 13 15 7 8 1005.7 1005.7 2.0
03/02:00am 13.1 11.9 10.2 82 1.5 S 7 9 4 5 1007.2 1007.2 2.0
03/01:30am 12.9 12.7 10.6 86 1.2 SSW 2 9 1 5 1007.9 1007.9 1.4
03/01:00am 13.0 11.6 10.9 87 1.1 ENE 9 11 5 6 1008.3 1008.3 1.2
03/12:30am 14.5 11.1 9.2 70 2.7 NNW 17 20 9 11 1009.6 1009.6 0.6
03/12:00am 14.9 11.1 7.7 62 3.6 WNW 17 26 9 14 1008.8 1008.8 0.2
 
Date/Time
EST
Temp
°C
App
Temp
°C
Dew
Point
Rel
Hum
%
Delta-T
°C
Wind Press
QNH
hPa
Press
MSL
hPa
Rain
since 9 am
mm
Dir
 
Spd
km/h
Gust
km/h
Spd
kts
Gust
kts
02/11:40pm 15.6 11.0 8.3 62 3.7 NW 22 35 12 19 1010.0 1010.0 0.0
02/11:30pm 17.3 14.4 6.6 49 5.3 N 11 17 6 9 1008.8 1008.8 0.0
02/11:00pm 17.3 12.9 6.6 49 5.3 NNE 19 24 10 13 1008.0 1008.0 0.0
02/10:30pm 17.6 12.1 5.7 45 5.8 NNE 24 32 13 17 1008.6 1008.6 0.0
02/10:00pm 17.7 12.4 6.6 48 5.5 NNE 24 32 13 17 1009.0 1009.0 0.0
02/09:30pm 17.9 12.1 7.9 52 5.1 NNE 28 35 15 19 1009.6 1009.6 0.0
02/09:00pm 17.9 13.5 8.8 55 4.7 NNE 22 30 12 16 1009.9 1009.9 0.0
02/08:30pm 18.0 13.7 9.2 56 4.6 NE 22 30 12 16 1010.2 1010.2 0.0
02/08:00pm 18.2 13.6 8.0 51 5.2 NNE 22 30 12 16 1010.4 1010.4 0.0
02/07:30pm 18.1 13.9 7.4 49 5.4 NNE 19 26 10 14 1010.8 1010.8 0.0
02/07:00pm 18.3 12.3 7.2 48 5.6 NNE 28 35 15 19 1011.0 1011.0 0.0
02/06:30pm 18.3 13.4 6.9 47 5.7 NNE 22 30 12 16 1011.1 1011.1 0.0
02/06:00pm 18.0 12.6 7.8 51 5.2 NNE 26 33 14 18 1011.2 1011.2 0.0
02/05:30pm 18.5 12.5 7.2 47 5.7 NE 28 33 15 18 1011.3 1011.3 0.0
02/05:00pm 18.5 12.4 6.4 45 6.0 NE 28 33 15 18 1011.4 1011.4 0.0
02/04:30pm 19.6 13.9 5.0 38 7.1 NE 24 32 13 17 1011.6 1011.6 0.0
02/04:00pm 19.2 13.7 6.1 42 6.5 NE 24 33 13 18 1011.5 1011.5 0.0
02/03:30pm 19.0 13.5 5.8 42 6.5 NE 24 30 13 16 1011.7 1011.7 0.0
02/03:00pm 18.4 13.3 4.3 39 6.7 NNE 20 28 11 15 1011.8 1011.8 0.0
02/02:30pm 18.1 13.3 5.6 44 6.1 NNE 20 28 11 15 1012.3 1012.3 0.0
02/02:00pm 18.3 13.5 4.7 40 6.5 NNE 19 26 10 14 1013.0 1013.0 0.0
02/01:30pm 18.2 13.3 4.3 39 6.6 NE 19 28 10 15 1013.2 1013.2 0.0
02/01:00pm 17.8 14.2 4.8 42 6.2 NE 13 22 7 12 1013.8 1013.8 0.0
02/12:30pm 18.2 14.2 5.1 42 6.3 NNE 15 22 8 12 1014.7 1014.7 0.0
02/12:00pm 18.3 13.8 4.4 39 6.6 N 17 26 9 14 1015.2 1015.2 0.0
02/11:30am 17.3 13.4 3.5 39 6.4 WNW 13 20 7 11 1016.0 1016.0 0.0
02/11:00am 17.3 13.0 3.2 39 6.5 WNW 15 22 8 12 1016.7 1016.7 0.0
02/10:30am 16.2 11.6 3.9 44 5.7 NW 17 26 9 14 1017.2 1017.2 0.0
02/10:00am 14.8 10.1 3.0 45 5.3 NW 17 20 9 11 1017.6 1017.6 0.0
02/09:30am 14.0 10.2 3.9 50 4.6 WNW 13 19 7 10 1017.7 1017.7 0.0

Other Formats:

Comma delimited format used in spreadsheet applications
http://www.bom.gov.au/fwo/IDN60801/IDN60801.94767.axf

JavaScript Object Notation format (JSON) in row-major order
http://www.bom.gov.au/fwo/IDN60801/IDN60801.94767.json